Time,TemperatureF,DewpointF,PressureIn,WindDirection,WindDirectionDegrees,WindSpeedMPH,WindSpeedGustMPH,Humidity,HourlyPrecipIn,Conditions,Clouds,dailyrainin,SoftwareType,DateUTC
2013-07-06 00:00:00,81.0,-99.9,-100.00,North,-999,7.0,13.0,34,-99.99,,,-99.99,,2013-07-06 06:00:00,
2013-07-06 00:43:00,81.0,-99.9,-100.00,North,-999,7.0,13.0,34,-99.99,,,-99.99,,2013-07-06 06:43:00,
2013-07-06 00:53:00,81.0,-99.9,-100.00,North,-999,7.0,13.0,34,-99.99,,,-99.99,,2013-07-06 06:53:00,
2013-07-06 01:00:00,78.0,-99.9,-100.00,North,-999,2.0,6.0,40,-99.99,,,-99.99,,2013-07-06 07:00:00,
2013-07-06 01:22:00,-999.0,-99.9,-100.00,North,-999,2.0,6.0,40,-99.99,,,-99.99,,2013-07-06 07:22:00,
2013-07-06 01:44:00,78.0,-99.9,-100.00,North,-999,2.0,6.0,40,-99.99,,,-99.99,,2013-07-06 07:44:00,
2013-07-06 01:52:00,78.0,-99.9,-100.00,North,-999,2.0,6.0,40,-99.99,,,-99.99,,2013-07-06 07:52:00,
2013-07-06 02:00:00,75.0,-99.9,-100.00,North,-999,2.0,7.0,43,-99.99,,,-99.99,,2013-07-06 08:00:00,
2013-07-06 02:22:00,-999.0,-99.9,-100.00,North,-999,2.0,7.0,43,-99.99,,,-99.99,,2013-07-06 08:22:00,
2013-07-06 02:34:00,75.0,-99.9,-100.00,North,-999,2.0,7.0,43,-99.99,,,-99.99,,2013-07-06 08:34:00,
2013-07-06 02:43:00,75.0,-99.9,-100.00,North,-999,2.0,7.0,43,-99.99,,,-99.99,,2013-07-06 08:43:00,
2013-07-06 02:54:00,75.0,-99.9,-100.00,North,-999,2.0,7.0,43,-99.99,,,-99.99,,2013-07-06 08:54:00,
2013-07-06 03:00:00,75.0,-99.9,-100.00,North,-999,2.0,5.0,45,-99.99,,,-99.99,,2013-07-06 09:00:00,
2013-07-06 03:43:00,75.0,-99.9,-100.00,North,-999,2.0,5.0,45,-99.99,,,-99.99,,2013-07-06 09:43:00,
2013-07-06 03:53:00,75.0,-99.9,-100.00,North,-999,2.0,5.0,45,-99.99,,,-99.99,,2013-07-06 09:53:00,
2013-07-06 04:00:00,72.0,-99.9,-100.00,North,-999,2.0,4.0,52,-99.99,,,-99.99,,2013-07-06 10:00:00,
2013-07-06 04:43:00,72.0,-99.9,-100.00,North,-999,2.0,4.0,52,-99.99,,,-99.99,,2013-07-06 10:43:00,
2013-07-06 04:53:00,72.0,-99.9,-100.00,North,-999,2.0,4.0,52,-99.99,,,-99.99,,2013-07-06 10:53:00,
2013-07-06 05:00:00,69.0,-99.9,-100.00,North,-999,1.0,4.0,63,-99.99,,,-99.99,,2013-07-06 11:00:00,
2013-07-06 05:22:00,-999.0,-99.9,-100.00,North,-999,1.0,4.0,63,-99.99,,,-99.99,,2013-07-06 11:22:00,
2013-07-06 05:43:00,69.0,-99.9,-100.00,North,-999,1.0,4.0,63,-99.99,,,-99.99,,2013-07-06 11:43:00,
2013-07-06 05:53:00,69.0,-99.9,-100.00,North,-999,1.0,4.0,63,-99.99,,,-99.99,,2013-07-06 11:53:00,
2013-07-06 06:00:00,68.0,-99.9,-100.00,North,-999,2.0,6.0,59,-99.99,,,-99.99,,2013-07-06 12:00:00,
2013-07-06 06:22:00,-999.0,-99.9,-100.00,North,-999,2.0,6.0,59,-99.99,,,-99.99,,2013-07-06 12:22:00,
2013-07-06 07:00:00,-999.0,-99.9,-100.00,North,-999,2.0,4.0,56,-99.99,,,-99.99,,2013-07-06 13:00:00,
2013-07-06 07:22:00,-999.0,-99.9,-100.00,North,-999,2.0,4.0,56,-99.99,,,-99.99,,2013-07-06 13:22:00,
2013-07-06 07:33:00,-999.0,-99.9,-100.00,North,-999,2.0,4.0,56,-99.99,,,-99.99,,2013-07-06 13:33:00,
2013-07-06 07:43:00,-999.0,-99.9,-100.00,North,-999,2.0,4.0,56,-99.99,,,-99.99,,2013-07-06 13:43:00,
2013-07-06 07:52:00,-999.0,-99.9,-100.00,North,-999,2.0,4.0,56,-99.99,,,-99.99,,2013-07-06 13:52:00,
2013-07-06 08:00:00,-999.0,-99.9,-100.00,North,-999,2.0,5.0,44,-99.99,,,-99.99,,2013-07-06 14:00:00,
2013-07-06 08:22:00,-999.0,-99.9,-100.00,North,-999,2.0,5.0,44,-99.99,,,-99.99,,2013-07-06 14:22:00,
2013-07-06 08:34:00,-999.0,-99.9,-100.00,North,-999,2.0,5.0,44,-99.99,,,-99.99,,2013-07-06 14:34:00,
2013-07-06 08:43:00,-999.0,-99.9,-100.00,North,-999,2.0,5.0,44,-99.99,,,-99.99,,2013-07-06 14:43:00,
2013-07-06 08:53:00,-999.0,-99.9,-100.00,North,-999,2.0,5.0,44,-99.99,,,-99.99,,2013-07-06 14:53:00,
2013-07-06 09:00:00,80.0,-99.9,-100.00,North,-999,2.0,6.0,37,-99.99,,,-99.99,,2013-07-06 15:00:00,
2013-07-06 09:22:00,-999.0,-99.9,-100.00,North,-999,2.0,6.0,37,-99.99,,,-99.99,,2013-07-06 15:22:00,
2013-07-06 09:43:00,80.0,-99.9,-100.00,North,-999,2.0,6.0,37,-99.99,,,-99.99,,2013-07-06 15:43:00,
2013-07-06 09:53:00,80.0,-99.9,-100.00,North,-999,2.0,6.0,37,-99.99,,,-99.99,,2013-07-06 15:53:00,
2013-07-06 10:00:00,86.0,-99.9,-100.00,North,-999,3.0,7.0,29,-99.99,,,-99.99,,2013-07-06 16:00:00,
2013-07-06 11:00:00,89.0,-99.9,-100.00,North,-999,5.0,9.0,24,-99.99,,,-99.99,,2013-07-06 17:00:00,
2013-07-06 11:37:00,-999.0,-99.9,-100.00,North,-999,5.0,9.0,24,-99.99,,,-99.99,,2013-07-06 17:37:00,
2013-07-06 12:00:00,91.0,-99.9,-100.00,North,-999,4.0,10.0,23,-99.99,,,-99.99,,2013-07-06 18:00:00,
2013-07-06 13:00:00,94.0,-99.9,-100.00,North,-999,5.0,12.0,21,-99.99,,,-99.99,,2013-07-06 19:00:00,
2013-07-06 13:35:00,-999.0,-99.9,-100.00,North,-999,5.0,12.0,21,-99.99,,,-99.99,,2013-07-06 19:35:00,
2013-07-06 14:00:00,-999.0,-99.9,-100.00,North,-999,5.0,13.0,18,-99.99,,,-99.99,,2013-07-06 20:00:00,
2013-07-06 15:00:00,95.0,-99.9,-100.00,North,-999,5.0,11.0,17,-99.99,,,-99.99,,2013-07-06 21:00:00,
2013-07-06 16:00:00,95.0,-99.9,-100.00,North,-999,5.0,13.0,17,-99.99,,,-99.99,,2013-07-06 22:00:00,
2013-07-06 17:00:00,-999.0,-99.9,-100.00,North,-999,11.0,21.0,22,-99.99,,,-99.99,,2013-07-06 23:00:00,
2013-07-06 17:34:00,-999.0,-99.9,-100.00,North,-999,11.0,21.0,22,-99.99,,,-99.99,,2013-07-06 23:34:00,
2013-07-06 18:00:00,-999.0,-99.9,-100.00,North,-999,9.0,15.0,19,-99.99,,,-99.99,,2013-07-07 00:00:00,
2013-07-06 18:35:00,-999.0,-99.9,-100.00,North,-999,9.0,15.0,19,-99.99,,,-99.99,,2013-07-07 00:35:00,
2013-07-06 19:00:00,94.0,-99.9,-100.00,North,-999,3.0,8.0,18,-99.99,,,-99.99,,2013-07-07 01:00:00,
2013-07-06 19:37:00,-999.0,-99.9,-100.00,North,-999,3.0,8.0,18,-99.99,,,-99.99,,2013-07-07 01:37:00,
2013-07-06 20:00:00,91.0,-99.9,-100.00,North,-999,2.0,4.0,20,-99.99,,,-99.99,,2013-07-07 02:00:00,
2013-07-06 20:57:00,91.0,-99.9,-100.00,North,-999,2.0,4.0,20,-99.99,,,-99.99,,2013-07-07 02:57:00,
2013-07-06 21:00:00,87.0,-99.9,-100.00,North,-999,1.0,3.0,30,-99.99,,,-99.99,,2013-07-07 03:00:00,
2013-07-06 21:59:00,87.0,-99.9,-100.00,North,-999,1.0,3.0,30,-99.99,,,-99.99,,2013-07-07 03:59:00,
2013-07-06 22:00:00,84.0,-99.9,-100.00,North,-999,2.0,6.0,30,-99.99,,,-99.99,,2013-07-07 04:00:00,
2013-07-06 22:42:00,84.0,-99.9,-100.00,North,-999,2.0,6.0,30,-99.99,,,-99.99,,2013-07-07 04:42:00,
2013-07-06 22:52:00,84.0,-99.9,-100.00,North,-999,2.0,6.0,30,-99.99,,,-99.99,,2013-07-07 04:52:00,
2013-07-06 23:00:00,-999.0,-99.9,-100.00,North,-999,3.0,5.0,34,-99.99,,,-99.99,,2013-07-07 05:00:00,
2013-07-06 23:32:00,-999.0,-99.9,-100.00,North,-999,3.0,5.0,34,-99.99,,,-99.99,,2013-07-07 05:32:00,
2013-07-06 23:41:00,-999.0,-99.9,-100.00,North,-999,3.0,5.0,34,-99.99,,,-99.99,,2013-07-07 05:41:00,
2013-07-06 23:51:00,-999.0,-99.9,-100.00,North,-999,3.0,5.0,34,-99.99,,,-99.99,,2013-07-07 05:51:00,